createdAt,value
2024-05-09T00:01:08.549Z,103055.56
2024-05-09T00:03:41.294Z,103049.56
2024-05-09T00:06:13.012Z,103052.97
2024-05-09T00:08:41.383Z,103053.75
2024-05-09T00:11:12.069Z,103053.72
2024-05-09T00:13:42.825Z,103046.84
2024-05-09T00:16:11.299Z,103050.19
2024-05-09T00:18:42.123Z,103047.56
2024-05-09T00:21:10.702Z,103045.88
2024-05-09T00:23:39.112Z,103048.41
2024-05-09T00:26:07.620Z,103051.78
2024-05-09T00:28:38.493Z,103033.84
2024-05-09T00:31:06.828Z,103042.34
2024-05-09T00:33:35.334Z,103035.44
2024-05-09T00:36:05.909Z,103043.94
2024-05-09T00:38:36.509Z,103031.13
2024-05-09T00:41:04.969Z,103027.66
2024-05-09T00:43:33.333Z,103027.59
2024-05-09T00:46:02.078Z,103025.00
2024-05-09T00:48:30.873Z,103023.31
2024-05-09T00:51:00.552Z,103020.72
2024-05-09T00:53:29.178Z,103023.22
2024-05-09T00:55:59.025Z,103024.94
2024-05-09T00:58:30.592Z,103021.56
2024-05-09T01:01:01.114Z,103022.38
2024-05-09T01:03:29.797Z,103020.63
2024-05-09T01:05:58.531Z,103014.53
2024-05-09T01:08:29.277Z,103019.63
2024-05-09T01:10:57.800Z,103021.28
2024-05-09T01:13:26.234Z,103024.66
2024-05-09T01:15:55.479Z,103021.19
2024-05-09T01:18:23.935Z,103024.53
2024-05-09T01:20:54.608Z,103020.25
2024-05-09T01:23:22.972Z,103023.59
2024-05-09T01:25:54.555Z,103019.25
2024-05-09T01:28:22.915Z,103012.44
2024-05-09T01:30:54.002Z,103015.00
2024-05-09T01:33:24.888Z,103012.50
2024-05-09T01:35:55.765Z,103011.56
2024-05-09T01:38:24.163Z,103006.34
2024-05-09T01:40:55.483Z,103011.44
2024-05-09T01:43:23.873Z,103012.31
2024-05-09T01:45:55.832Z,103011.47
2024-05-09T01:48:24.444Z,103013.16
2024-05-09T01:50:52.952Z,103010.53
2024-05-09T01:53:21.339Z,103004.56
2024-05-09T01:55:52.158Z,103009.66
2024-05-09T01:58:22.884Z,103011.28
2024-05-09T02:00:54.081Z,103007.72
2024-05-09T02:03:22.922Z,103011.09
2024-05-09T02:05:53.888Z,103007.63
2024-05-09T02:08:22.820Z,103008.47
2024-05-09T02:10:51.505Z,103011.06
2024-05-09T02:13:22.358Z,103005.06
2024-05-09T02:15:52.421Z,103007.59
2024-05-09T02:18:23.693Z,103010.91
2024-05-09T02:20:52.348Z,103009.94
2024-05-09T02:23:20.818Z,103006.53
2024-05-09T02:25:49.454Z,103004.84
2024-05-09T02:28:18.134Z,103015.81
2024-05-09T02:30:46.529Z,103008.91
2024-05-09T02:33:15.106Z,103008.09
2024-05-09T02:35:44.420Z,103006.31
2024-05-09T02:38:13.563Z,103011.38
2024-05-09T02:40:44.510Z,103011.41
2024-05-09T02:43:13.344Z,103012.25
2024-05-09T02:45:45.183Z,103003.66
2024-05-09T02:48:16.160Z,103002.72
2024-05-09T02:50:45.041Z,102999.31
2024-05-09T02:53:14.527Z,102997.59
2024-05-09T02:55:43.498Z,103000.03
2024-05-09T02:58:16.540Z,102993.19
2024-05-09T03:00:44.926Z,102999.13
2024-05-09T03:03:15.278Z,103003.31
2024-05-09T03:05:45.486Z,102991.38
2024-05-09T03:08:14.454Z,102982.91
2024-05-09T03:10:43.392Z,102989.78
2024-05-09T03:13:15.020Z,102988.84
2024-05-09T03:15:45.736Z,102983.72
2024-05-09T03:18:14.401Z,102988.75
2024-05-09T03:20:45.825Z,102984.44
2024-05-09T03:23:16.795Z,102986.81
2024-05-09T03:25:48.027Z,102984.16
2024-05-09T03:28:16.359Z,102981.66
2024-05-09T03:30:44.703Z,102985.88
2024-05-09T03:33:18.792Z,102979.88
2024-05-09T03:35:51.013Z,102985.81
2024-05-09T03:38:25.137Z,102978.16
2024-05-09T03:40:53.540Z,102985.72
2024-05-09T03:43:24.377Z,102984.75
2024-05-09T03:45:55.775Z,102984.69
2024-05-09T03:48:27.798Z,102986.31
2024-05-09T03:50:58.475Z,102983.78
2024-05-09T03:53:29.719Z,102981.09
2024-05-09T03:55:58.184Z,102987.00
2024-05-09T03:58:26.576Z,102985.34
2024-05-09T04:00:54.963Z,102983.69
2024-05-09T04:03:23.479Z,102991.25
2024-05-09T04:05:56.306Z,102990.44
2024-05-09T04:08:26.960Z,102989.69
2024-05-09T04:10:55.415Z,102990.63
2024-05-09T04:13:23.745Z,102993.94
2024-05-09T04:15:52.142Z,102997.28
2024-05-09T04:18:20.572Z,102998.91
2024-05-09T04:20:51.440Z,102992.06
2024-05-09T04:23:22.226Z,102990.44
2024-05-09T04:25:53.054Z,102995.56
2024-05-09T04:28:21.490Z,102988.63
2024-05-09T04:30:55.344Z,102992.06
2024-05-09T04:33:27.330Z,102990.38
2024-05-09T04:35:57.027Z,102998.03
2024-05-09T04:38:25.426Z,102993.00
2024-05-09T04:40:56.206Z,103000.78
2024-05-09T04:43:27.575Z,102998.34
2024-05-09T04:45:56.021Z,103001.03
2024-05-09T04:48:26.836Z,103002.81
2024-05-09T04:50:55.272Z,103007.09
2024-05-09T04:53:23.722Z,103003.03
2024-05-09T04:55:52.231Z,103004.00
2024-05-09T04:58:20.555Z,103009.16
2024-05-09T05:00:51.263Z,103007.56
2024-05-09T05:03:22.897Z,103001.75
2024-05-09T05:05:51.661Z,103006.88
2024-05-09T05:08:20.288Z,103005.22
2024-05-09T05:10:51.056Z,103012.06
2024-05-09T05:13:23.850Z,103015.59
2024-05-09T05:15:57.531Z,103013.16
2024-05-09T05:18:29.561Z,103015.84
2024-05-09T05:21:00.884Z,103016.88
2024-05-09T05:23:31.936Z,103016.19
2024-05-09T05:26:02.430Z,103027.41
2024-05-09T05:28:30.831Z,103019.00
2024-05-09T05:30:59.211Z,103014.91
2024-05-09T05:33:30.563Z,103018.50
2024-05-09T05:36:00.075Z,103021.19
2024-05-09T05:38:28.890Z,103016.22
2024-05-09T05:40:59.619Z,103021.47
2024-05-09T05:43:30.963Z,103026.75
2024-05-09T05:46:00.356Z,103020.06
2024-05-09T05:48:30.834Z,103020.16
2024-05-09T05:51:01.905Z,103020.22
2024-05-09T05:53:32.073Z,103022.03
2024-05-09T05:56:01.580Z,103025.56
2024-05-09T05:58:32.058Z,103023.06
2024-05-09T06:01:00.828Z,103016.31
2024-05-09T06:03:31.489Z,103018.94
2024-05-09T06:06:03.903Z,103020.69
2024-05-09T06:08:34.623Z,103021.63
2024-05-09T06:11:08.859Z,103011.41
2024-05-09T06:13:45.775Z,103002.06
2024-05-09T06:16:17.216Z,103009.78
2024-05-09T06:18:46.858Z,103011.53
2024-05-09T06:21:18.464Z,103001.31
2024-05-09T06:23:47.781Z,103010.72
2024-05-09T06:26:18.967Z,103005.63
2024-05-09T06:28:50.231Z,103003.94
2024-05-09T06:31:18.830Z,103004.78
2024-05-09T06:33:49.493Z,103004.78
2024-05-09T06:36:20.666Z,102994.50
2024-05-09T06:38:49.144Z,102998.81
2024-05-09T06:41:20.489Z,102997.94
2024-05-09T06:43:51.082Z,102989.38
2024-05-09T06:46:19.672Z,102989.38
2024-05-09T06:48:49.097Z,102991.06
2024-05-09T06:51:20.371Z,102996.16
2024-05-09T06:53:48.823Z,102996.16
2024-05-09T06:56:17.197Z,102994.44
2024-05-09T06:58:48.068Z,102990.06
2024-05-09T07:01:16.476Z,102991.75
2024-05-09T07:03:47.736Z,102991.72
2024-05-09T07:06:17.295Z,102991.63
2024-05-09T07:08:46.950Z,102993.38
2024-05-09T07:11:18.693Z,102990.72
2024-05-09T07:13:50.117Z,102994.06
2024-05-09T07:16:18.520Z,102994.00
2024-05-09T07:18:49.620Z,102999.97
2024-05-09T07:21:18.225Z,102983.59
2024-05-09T07:23:47.441Z,102993.84
2024-05-09T07:26:16.168Z,102989.47
2024-05-09T07:28:44.624Z,102994.50
2024-05-09T07:31:12.945Z,102991.84
2024-05-09T07:33:41.466Z,102996.06
2024-05-09T07:36:10.068Z,102985.63
2024-05-09T07:38:38.573Z,102984.69
2024-05-09T07:41:07.302Z,102978.56
2024-05-09T07:43:35.692Z,102977.50
2024-05-09T07:47:03.891Z,102976.53
2024-05-09T07:53:59.559Z,102972.59
2024-05-09T07:56:29.355Z,102974.06
2024-05-09T07:58:57.862Z,102967.00
2024-05-09T08:01:27.169Z,102965.19
2024-05-09T08:03:56.143Z,102968.47
2024-05-09T08:06:25.437Z,102976.16
2024-05-09T08:08:53.837Z,102968.25
2024-05-09T08:11:22.288Z,102970.72
2024-05-09T08:13:50.651Z,102960.28
2024-05-09T08:16:19.421Z,102962.59
2024-05-09T08:18:50.213Z,102950.44
2024-05-09T08:21:19.319Z,102957.97
2024-05-09T08:23:47.726Z,102958.69
2024-05-09T08:26:17.160Z,102956.69
2024-05-09T08:28:45.490Z,102958.06
2024-05-09T08:31:14.107Z,102956.00
2024-05-09T08:33:49.077Z,102958.16
2024-05-09T08:36:17.798Z,102958.59
2024-05-09T08:38:46.147Z,102958.41
2024-05-09T08:41:15.909Z,102955.78
2024-05-09T08:43:45.326Z,102953.53
2024-05-09T08:46:14.374Z,102955.63
2024-05-09T08:48:45.790Z,102957.34
2024-05-09T08:51:15.453Z,102959.19
2024-05-09T08:53:43.882Z,102960.84
2024-05-09T08:56:12.480Z,102954.56
2024-05-09T08:58:42.492Z,102956.88
2024-05-09T09:01:12.814Z,102955.41
2024-05-09T09:03:43.136Z,102959.91
2024-05-09T09:06:16.620Z,102960.03
2024-05-09T09:08:46.320Z,102947.75
2024-05-09T09:11:14.707Z,102951.38
2024-05-09T09:13:43.052Z,102942.03
2024-05-09T09:16:12.749Z,102943.91
2024-05-09T09:18:44.424Z,102938.78
2024-05-09T09:21:12.964Z,102944.88
2024-05-09T09:23:41.345Z,102930.38
2024-05-09T09:26:09.858Z,102933.22
2024-05-09T09:28:38.263Z,102934.38
2024-05-09T09:31:06.603Z,102929.94
2024-05-09T09:33:36.148Z,102931.25
2024-05-09T09:36:08.206Z,102923.84
2024-05-09T09:38:40.360Z,102931.13
2024-05-09T09:41:10.802Z,102929.78
2024-05-09T09:43:40.890Z,102925.25
2024-05-09T09:46:12.589Z,102922.56
2024-05-09T09:48:43.410Z,102924.28
2024-05-09T09:51:12.181Z,102925.75
2024-05-09T09:53:42.332Z,102923.22
2024-05-09T09:56:11.604Z,102920.34
2024-05-09T09:58:42.928Z,102921.03
2024-05-09T10:01:11.493Z,102917.59
2024-05-09T10:03:45.578Z,102922.94
2024-05-09T10:06:16.059Z,102913.81
2024-05-09T10:08:47.412Z,102908.50
2024-05-09T10:11:23.125Z,102901.47
2024-05-09T10:13:53.712Z,102904.50
2024-05-09T10:16:23.092Z,102908.22
2024-05-09T10:18:51.652Z,102908.00
2024-05-09T10:21:21.153Z,102904.44
2024-05-09T10:23:59.787Z,102897.19
2024-05-09T10:26:34.436Z,102895.59
2024-05-09T10:29:13.678Z,102894.44
2024-05-09T10:31:43.851Z,102897.06
2024-05-09T10:34:20.066Z,102895.84
2024-05-09T10:36:55.883Z,102888.69
2024-05-09T10:39:26.003Z,102889.38
2024-05-09T10:41:54.403Z,102885.94
2024-05-09T10:44:22.945Z,102881.81
2024-05-09T10:46:53.629Z,102877.53
2024-05-09T10:49:22.185Z,102878.25
2024-05-09T10:51:50.981Z,102890.41
2024-05-09T10:54:19.315Z,102878.78
2024-05-09T10:56:56.161Z,102874.34
2024-05-09T10:59:24.669Z,102876.69
2024-05-09T11:01:53.404Z,102873.25
2024-05-09T11:04:22.086Z,102866.56
2024-05-09T11:06:50.649Z,102867.03
2024-05-09T11:09:19.047Z,102865.25
2024-05-09T11:11:47.424Z,102868.78
2024-05-09T11:14:17.188Z,102868.59
2024-05-09T11:16:45.059Z,102863.69
2024-05-09T11:19:14.669Z,102857.19
2024-05-09T11:21:43.253Z,102858.09
2024-05-09T11:24:12.225Z,102860.06
2024-05-09T11:26:40.578Z,102844.81
2024-05-09T11:29:08.887Z,102845.59
2024-05-09T11:31:57.461Z,102847.38
2024-05-09T11:34:25.865Z,102845.97
2024-05-09T11:36:54.299Z,102845.13
2024-05-09T11:39:22.628Z,102841.59
2024-05-09T11:41:51.009Z,102844.75
2024-05-09T11:44:19.331Z,102849.09
2024-05-09T11:46:47.792Z,102838.97
2024-05-09T11:49:16.196Z,102844.88
2024-05-09T11:51:44.630Z,102838.19
2024-05-09T11:54:12.960Z,102840.72
2024-05-09T11:56:41.304Z,102836.03
2024-05-09T11:59:10.379Z,102829.69
2024-05-09T12:01:38.774Z,102832.69
2024-05-09T12:04:07.409Z,102828.00
2024-05-09T12:06:36.109Z,102831.03
2024-05-09T12:09:04.619Z,102832.97
2024-05-09T12:11:33.020Z,102831.47
2024-05-09T12:14:01.385Z,102826.97
2024-05-09T12:16:30.141Z,102828.00
2024-05-09T12:18:58.699Z,102824.09
2024-05-09T12:21:27.098Z,102817.47
2024-05-09T12:23:55.414Z,102818.25
2024-05-09T12:26:23.913Z,102815.09
2024-05-09T12:28:52.321Z,102808.97
2024-05-09T12:31:20.745Z,102819.28
2024-05-09T12:33:49.286Z,102810.66
2024-05-09T12:36:17.789Z,102802.69
2024-05-09T12:38:46.551Z,102806.63
2024-05-09T12:41:14.885Z,102799.88
2024-05-09T12:43:43.220Z,102796.19
2024-05-09T12:46:11.934Z,102796.09
2024-05-09T12:48:40.516Z,102797.59
2024-05-09T12:51:08.972Z,102793.50
2024-05-09T12:53:37.336Z,102793.41
2024-05-09T12:56:07.275Z,102790.97
2024-05-09T12:58:38.096Z,102794.63
2024-05-09T13:01:06.470Z,102787.94
2024-05-09T13:03:35.077Z,102795.84
2024-05-09T13:06:03.492Z,102793.03
2024-05-09T13:08:31.994Z,102780.81
2024-05-09T13:11:00.698Z,102786.50
2024-05-09T13:13:29.310Z,102781.63
2024-05-09T13:15:57.790Z,102779.25
2024-05-09T13:18:26.234Z,102778.00
2024-05-09T13:20:54.622Z,102787.44
2024-05-09T13:23:22.960Z,102776.84
2024-05-09T13:25:51.307Z,102777.41
2024-05-09T13:28:19.900Z,102776.13
2024-05-09T13:30:48.425Z,102779.81
2024-05-09T13:33:16.860Z,102779.78
2024-05-09T13:35:49.515Z,102777.72
2024-05-09T13:38:20.860Z,102776.69
2024-05-09T13:40:50.537Z,102780.63
2024-05-09T13:43:20.772Z,102789.97
2024-05-09T13:45:49.593Z,102785.00
2024-05-09T13:48:19.599Z,102778.66
2024-05-09T13:50:48.328Z,102790.19
2024-05-09T13:53:16.685Z,102791.19
2024-05-09T13:55:45.107Z,102783.81
2024-05-09T13:58:13.530Z,102778.63
2024-05-09T14:00:46.920Z,102775.50
2024-05-09T14:03:19.972Z,102771.13
2024-05-09T14:05:51.368Z,102780.91
2024-05-09T14:08:21.824Z,102781.34
2024-05-09T14:10:50.875Z,102777.44
2024-05-09T14:13:20.016Z,102769.25
2024-05-09T14:15:48.720Z,102770.88
2024-05-09T14:18:18.652Z,102765.66
2024-05-09T14:20:46.625Z,102763.50
2024-05-09T14:23:15.575Z,102762.41
2024-05-09T14:25:47.218Z,102761.16
2024-05-09T14:28:18.399Z,102759.91
2024-05-09T14:30:46.914Z,102765.91
2024-05-09T14:33:20.544Z,102754.91
2024-05-09T14:35:50.099Z,102756.03
2024-05-09T14:38:18.444Z,102745.72
2024-05-09T14:40:47.053Z,102752.31
2024-05-09T14:43:16.052Z,102752.41
2024-05-09T14:45:45.361Z,102746.66
2024-05-09T14:48:17.350Z,102740.16
2024-05-09T14:50:45.880Z,102737.16
2024-05-09T14:53:14.268Z,102737.22
2024-05-09T14:55:43.765Z,102732.41
2024-05-09T14:58:13.068Z,102720.13
2024-05-09T15:00:46.851Z,102725.31
2024-05-09T15:03:20.264Z,102728.75
2024-05-09T15:05:49.716Z,102717.56
2024-05-09T15:08:19.112Z,102710.41
2024-05-09T15:10:49.985Z,102710.19
2024-05-09T15:13:19.973Z,102707.63
2024-05-09T15:15:48.978Z,102702.00
2024-05-09T15:18:18.573Z,102711.31
2024-05-09T15:20:47.037Z,102708.97
2024-05-09T15:23:15.543Z,102697.56
2024-05-09T15:25:44.773Z,102688.47
2024-05-09T15:28:13.204Z,102692.38
2024-05-09T15:30:45.214Z,102684.88
2024-05-09T15:33:15.224Z,102692.84
2024-05-09T15:35:46.126Z,102689.13
2024-05-09T15:38:16.253Z,102692.22
2024-05-09T15:40:44.784Z,102689.50
2024-05-09T15:43:13.263Z,102686.94
2024-05-09T15:45:42.055Z,102678.38
2024-05-09T15:48:11.507Z,102683.63
2024-05-09T15:50:42.064Z,102672.63
2024-05-09T15:53:13.328Z,102671.91
2024-05-09T15:55:42.816Z,102673.31
2024-05-09T15:58:11.642Z,102670.19
2024-05-09T16:00:42.822Z,102668.69
2024-05-09T16:03:14.401Z,102670.06
2024-05-09T16:05:47.998Z,102669.91
2024-05-09T16:08:16.811Z,102654.59
2024-05-09T16:10:47.137Z,102658.41
2024-05-09T16:13:17.356Z,102666.47
2024-05-09T16:15:46.851Z,102663.09
2024-05-09T16:18:15.688Z,102662.38
2024-05-09T16:20:45.669Z,102659.25
2024-05-09T16:23:15.894Z,102649.38
2024-05-09T16:25:47.455Z,102650.91
2024-05-09T16:28:15.835Z,102657.34
2024-05-09T16:30:44.298Z,102647.06
2024-05-09T16:33:12.888Z,102644.78
2024-05-09T16:35:41.528Z,102639.25
2024-05-09T16:38:09.913Z,102640.75
2024-05-09T16:40:40.739Z,102634.53
2024-05-09T16:43:10.874Z,102637.84
2024-05-09T16:45:44.699Z,102632.84
2024-05-09T16:48:14.193Z,102631.63
2024-05-09T16:50:42.811Z,102631.44
2024-05-09T16:53:11.221Z,102629.59
2024-05-09T16:55:39.622Z,102626.16
2024-05-09T16:58:08.638Z,102632.03
2024-05-09T17:00:41.963Z,102634.75
2024-05-09T17:03:15.440Z,102631.94
2024-05-09T17:05:46.886Z,102633.59
2024-05-09T17:08:19.991Z,102630.25
2024-05-09T17:10:49.839Z,102625.22
2024-05-09T17:13:19.337Z,102624.78
2024-05-09T17:15:49.194Z,102636.22
2024-05-09T17:18:17.228Z,102635.44
2024-05-09T17:20:45.690Z,102629.91
2024-05-09T17:23:14.586Z,102633.69
2024-05-09T17:25:44.395Z,102633.00
2024-05-09T17:28:13.028Z,102624.47
2024-05-09T17:30:42.796Z,102621.59
2024-05-09T17:33:12.723Z,102623.97
2024-05-09T17:35:41.934Z,102622.66
2024-05-09T17:38:10.403Z,102628.91
2024-05-09T17:40:39.549Z,102631.47
2024-05-09T17:43:10.432Z,102625.97
2024-05-09T17:45:41.280Z,102627.09
2024-05-09T17:48:12.167Z,102621.50
2024-05-09T17:50:41.910Z,102625.75
2024-05-09T17:53:11.413Z,102627.28
2024-05-09T17:55:40.718Z,102626.78
2024-05-09T17:58:10.297Z,102620.75
2024-05-09T18:03:12.493Z,102624.56
2024-05-09T18:05:43.090Z,102627.59
2024-05-09T18:08:12.815Z,102626.75
2024-05-09T18:10:41.964Z,102624.84
2024-05-09T18:13:11.903Z,102627.66
2024-05-09T18:15:41.094Z,102625.59
2024-05-09T18:18:10.651Z,102634.22
2024-05-09T18:20:44.900Z,102636.72
2024-05-09T18:23:16.774Z,102630.09
2024-05-09T18:25:47.356Z,102633.91
2024-05-09T18:28:16.593Z,102630.00
2024-05-09T18:30:45.506Z,102629.59
2024-05-09T18:33:14.280Z,102627.44
2024-05-09T18:35:46.414Z,102626.91
2024-05-09T18:38:15.164Z,102626.25
2024-05-09T18:40:46.096Z,102622.34
2024-05-09T18:43:17.153Z,102627.78
2024-05-09T18:45:46.518Z,102632.28
2024-05-09T18:48:15.156Z,102635.25
2024-05-09T18:50:43.701Z,102632.88
2024-05-09T18:53:13.469Z,102635.75
2024-05-09T18:55:42.779Z,102641.28
2024-05-09T18:58:11.587Z,102645.09
2024-05-09T19:00:42.769Z,102647.97
2024-05-09T19:03:14.783Z,102638.69
2024-05-09T19:05:45.912Z,102642.47
2024-05-09T19:08:15.615Z,102635.69
2024-05-09T19:10:45.958Z,102637.66
2024-05-09T19:13:15.514Z,102634.44
2024-05-09T19:15:48.527Z,102640.66
2024-05-09T19:18:17.305Z,102644.31
2024-05-09T19:20:45.839Z,102643.50
2024-05-09T19:23:14.396Z,102645.69
2024-05-09T19:25:44.759Z,102649.25
2024-05-09T19:28:15.328Z,102649.63
2024-05-09T19:30:43.699Z,102645.63
2024-05-09T19:33:13.429Z,102648.28
2024-05-09T19:35:43.611Z,102652.22
2024-05-09T19:38:12.674Z,102645.25
2024-05-09T19:40:41.225Z,102648.25
2024-05-09T19:43:10.317Z,102644.06
2024-05-09T19:45:40.055Z,102652.56
2024-05-09T19:48:09.136Z,102648.16
2024-05-09T19:50:42.868Z,102652.84
2024-05-09T19:53:13.871Z,102657.47
2024-05-09T19:55:43.041Z,102651.03
2024-05-09T19:58:12.487Z,102649.88
2024-05-09T20:00:43.504Z,102648.50
2024-05-09T20:03:15.227Z,102654.84
2024-05-09T20:05:46.895Z,102653.91
2024-05-09T20:08:15.997Z,102656.66
2024-05-09T20:10:44.457Z,102656.94
2024-05-09T20:13:14.262Z,102663.91
2024-05-09T20:15:43.755Z,102658.00
2024-05-09T20:18:12.612Z,102656.63
2024-05-09T20:20:43.149Z,102658.56
2024-05-09T20:23:13.682Z,102660.44
2024-05-09T20:25:43.359Z,102663.22
2024-05-09T20:28:11.941Z,102666.97
2024-05-09T20:30:40.517Z,102663.66
2024-05-09T20:33:09.892Z,102666.41
2024-05-09T20:35:38.705Z,102663.94
2024-05-09T20:38:07.047Z,102664.91
2024-05-09T20:40:38.256Z,102672.78
2024-05-09T20:43:11.218Z,102681.69
2024-05-09T20:45:40.621Z,102674.84
2024-05-09T20:48:10.097Z,102680.88
2024-05-09T20:50:41.515Z,102670.75
2024-05-09T20:53:14.725Z,102678.75
2024-05-09T20:55:45.323Z,102678.88
2024-05-09T20:58:14.335Z,102673.84
2024-05-09T21:00:45.871Z,102667.97
2024-05-09T21:03:17.038Z,102664.72
2024-05-09T21:05:47.407Z,102663.19
2024-05-09T21:08:16.556Z,102668.47
2024-05-09T21:10:44.993Z,102673.75
2024-05-09T21:13:13.461Z,102669.47
2024-05-09T21:15:42.146Z,102672.13
2024-05-09T21:18:10.600Z,102670.50
2024-05-09T21:20:39.022Z,102662.91
2024-05-09T21:23:07.358Z,102661.22
2024-05-09T21:25:35.909Z,102659.59
2024-05-09T21:28:04.454Z,102664.88
2024-05-09T21:30:41.053Z,102664.19
2024-05-09T21:33:14.119Z,102661.66
2024-05-09T21:35:44.649Z,102660.91
2024-05-09T21:38:14.799Z,102663.50
2024-05-09T21:40:43.738Z,102660.13
2024-05-09T21:43:12.450Z,102668.81
2024-05-09T21:45:40.927Z,102668.97
2024-05-09T21:48:09.464Z,102668.13
2024-05-09T21:50:41.139Z,102670.78
2024-05-09T21:53:12.421Z,102669.00
2024-05-09T21:55:42.989Z,102664.59
2024-05-09T21:58:13.988Z,102670.66
2024-05-09T22:00:45.404Z,102663.81
2024-05-09T22:03:14.713Z,102668.06
2024-05-09T22:05:44.980Z,102664.63
2024-05-09T22:08:13.949Z,102665.59
2024-05-09T22:10:42.524Z,102665.69
2024-05-09T22:13:11.403Z,102662.28
2024-05-09T22:15:41.128Z,102660.75
2024-05-09T22:18:10.641Z,102666.91
2024-05-09T22:20:45.024Z,102661.88
2024-05-09T22:23:15.557Z,102661.88
2024-05-09T22:25:44.217Z,102660.16
2024-05-09T22:28:15.897Z,102665.38
2024-05-09T22:30:46.125Z,102665.31
2024-05-09T22:33:15.857Z,102664.47
2024-05-09T22:35:44.499Z,102660.31
2024-05-09T22:38:12.882Z,102669.81
2024-05-09T22:40:47.436Z,102665.56
2024-05-09T22:43:23.418Z,102667.31
2024-05-09T22:45:54.970Z,102673.38
2024-05-09T22:48:25.013Z,102669.09
2024-05-09T22:50:54.652Z,102669.06
2024-05-09T22:53:24.708Z,102669.19
2024-05-09T22:55:53.473Z,102670.09
2024-05-09T22:58:21.977Z,102666.69
2024-05-09T23:00:50.601Z,102668.47
2024-05-09T23:03:21.898Z,102661.69
2024-05-09T23:05:51.089Z,102673.72
2024-05-09T23:08:19.454Z,102668.56
2024-05-09T23:10:47.879Z,102670.25
2024-05-09T23:13:16.377Z,102675.38
2024-05-09T23:15:44.834Z,102665.09
2024-05-09T23:18:13.357Z,102670.31
2024-05-09T23:20:41.815Z,102666.88
2024-05-09T23:23:11.686Z,102660.03
2024-05-09T23:25:44.060Z,102670.41
2024-05-09T23:28:12.838Z,102667.00
2024-05-09T23:30:42.007Z,102667.00
2024-05-09T23:33:12.889Z,102673.91
2024-05-09T23:35:44.170Z,102668.84
2024-05-09T23:38:13.495Z,102658.63
2024-05-09T23:40:42.967Z,102656.03
2024-05-09T23:43:12.715Z,102656.94
2024-05-09T23:45:42.256Z,102655.31
2024-05-09T23:48:11.697Z,102656.19
2024-05-09T23:50:40.958Z,102658.78
2024-05-09T23:53:10.631Z,102653.63
2024-05-09T23:55:39.690Z,102656.28
2024-05-09T23:58:08.688Z,102658.03
